Time,TemperatureF,DewpointF,PressureIn,WindDirection,WindDirectionDegrees,WindSpeedMPH,WindSpeedGustMPH,Humidity,HourlyPrecipIn,Conditions,Clouds,dailyrainin,SoftwareType,DateUTC
2013-05-10 00:01:00,56.9,56.1,29.89,South,179,0.0,0.0,97,0.02,RA,,0.00,WeatherDisplay:10.37,2013-05-10 04:01:00,
2013-05-10 00:06:00,56.9,56.1,29.90,South,179,0.0,0.0,97,0.01,RA,,0.00,WeatherDisplay:10.37,2013-05-10 04:06:00,
2013-05-10 00:11:00,56.8,56.0,29.90,South,179,0.1,1.2,97,0.01,OVC,,0.00,WeatherDisplay:10.37,2013-05-10 04:11:00,
2013-05-10 00:16:00,56.8,56.0,29.90,South,179,0.1,1.0,97,0.01,OVC,,0.00,WeatherDisplay:10.37,2013-05-10 04:16:00,
2013-05-10 00:21:00,56.8,56.0,29.90,South,179,0.0,0.0,97,0.01,OVC,,0.00,WeatherDisplay:10.37,2013-05-10 04:21:00,
2013-05-10 00:26:00,56.9,56.1,29.90,South,179,0.0,0.0,97,0.01,OVC,,0.00,WeatherDisplay:10.37,2013-05-10 04:26:00,
2013-05-10 00:31:00,57.0,56.4,29.90,South,179,0.0,0.0,98,0.01,OVC,,0.00,WeatherDisplay:10.37,2013-05-10 04:31:00,
2013-05-10 00:36:00,57.1,56.5,29.90,South,181,0.0,0.0,98,0.01,OVC,,0.00,WeatherDisplay:10.37,2013-05-10 04:36:00,
2013-05-10 00:41:00,57.1,56.5,29.90,South,181,0.0,0.0,98,0.00,OVC,,0.00,WeatherDisplay:10.37,2013-05-10 04:41:00,
2013-05-10 00:46:00,57.2,56.6,29.90,South,181,0.0,0.0,98,0.00,OVC,,0.00,WeatherDisplay:10.37,2013-05-10 04:46:00,
2013-05-10 00:51:00,57.3,56.7,29.89,South,181,0.0,0.0,98,0.00,OVC,,0.00,WeatherDisplay:10.37,2013-05-10 04:51:00,
2013-05-10 00:56:00,57.2,56.6,29.89,South,181,0.0,0.0,98,0.00,OVC,,0.00,WeatherDisplay:10.37,2013-05-10 04:56:00,
2013-05-10 01:01:00,57.0,56.2,29.89,South,181,0.0,0.0,97,0.00,BKN,,0.00,WeatherDisplay:10.37,2013-05-10 05:01:00,
2013-05-10 01:06:00,56.9,56.1,29.89,South,181,0.0,0.0,97,0.00,BKN,,0.00,WeatherDisplay:10.37,2013-05-10 05:06:00,
2013-05-10 01:11:00,56.8,56.0,29.89,South,181,0.0,0.0,97,0.00,BKN,,0.00,WeatherDisplay:10.37,2013-05-10 05:11:00,
2013-05-10 01:16:00,56.8,56.0,29.89,South,181,0.0,0.0,97,0.00,BKN,,0.00,WeatherDisplay:10.37,2013-05-10 05:16:00,
2013-05-10 01:21:00,56.6,55.8,29.89,South,181,0.0,0.0,97,0.00,BKN,,0.00,WeatherDisplay:10.37,2013-05-10 05:21:00,
2013-05-10 01:26:00,56.6,55.8,29.89,South,181,0.0,0.0,97,0.00,BKN,,0.00,WeatherDisplay:10.37,2013-05-10 05:26:00,
2013-05-10 01:31:00,56.6,55.8,29.89,South,181,0.0,1.0,97,0.00,BKN,,0.00,WeatherDisplay:10.37,2013-05-10 05:31:00,
2013-05-10 01:36:00,56.6,55.8,29.89,South,181,0.0,0.0,97,0.00,BKN,,0.00,WeatherDisplay:10.37,2013-05-10 05:36:00,
2013-05-10 01:41:00,56.5,55.7,29.89,South,181,0.0,0.0,97,0.00,BKN,,0.00,WeatherDisplay:10.37,2013-05-10 05:41:00,
2013-05-10 01:46:00,56.5,55.7,29.90,South,181,0.2,1.2,97,0.00,OVC,,0.00,WeatherDisplay:10.37,2013-05-10 05:46:00,
2013-05-10 01:51:00,56.3,55.5,29.90,South,181,0.0,0.0,97,0.00,OVC,,0.00,WeatherDisplay:10.37,2013-05-10 05:51:00,
2013-05-10 01:56:00,56.3,55.7,29.90,South,181,0.9,1.2,98,0.00,OVC,,0.00,WeatherDisplay:10.37,2013-05-10 05:56:00,
2013-05-10 02:01:00,56.1,55.3,29.90,South,184,0.1,1.2,97,0.00,OVC,,0.00,WeatherDisplay:10.37,2013-05-10 06:01:00,
2013-05-10 02:06:00,55.9,55.1,29.90,South,184,0.0,0.0,97,0.00,OVC,,0.00,WeatherDisplay:10.37,2013-05-10 06:06:00,
2013-05-10 02:11:00,55.8,55.0,29.90,South,184,0.3,2.3,97,0.00,OVC,,0.00,WeatherDisplay:10.37,2013-05-10 06:11:00,
2013-05-10 02:16:00,55.7,54.9,29.91,South,185,0.3,1.2,97,0.00,OVC,,0.00,WeatherDisplay:10.37,2013-05-10 06:16:00,
2013-05-10 02:21:00,55.6,54.8,29.91,SSW,192,0.1,1.0,97,0.00,OVC,,0.00,WeatherDisplay:10.37,2013-05-10 06:21:00,
2013-05-10 02:26:00,55.5,54.7,29.90,SSW,192,0.0,1.2,97,0.00,OVC,,0.00,WeatherDisplay:10.37,2013-05-10 06:26:00,
2013-05-10 02:32:00,55.4,54.6,29.90,NNW,348,0.0,2.3,97,0.00,OVC,,0.00,WeatherDisplay:10.37,2013-05-10 06:32:00,
2013-05-10 02:37:00,55.4,54.8,29.90,NNW,348,0.0,0.0,98,0.00,OVC,,0.00,WeatherDisplay:10.37,2013-05-10 06:37:00,
2013-05-10 02:42:00,55.3,54.7,29.90,NNW,348,0.0,0.0,98,0.00,OVC,,0.00,WeatherDisplay:10.37,2013-05-10 06:42:00,
2013-05-10 02:47:00,55.2,54.4,29.89,NNW,348,0.1,1.0,97,0.00,CLR,,0.00,WeatherDisplay:10.37,2013-05-10 06:47:00,
2013-05-10 02:52:00,55.2,54.4,29.89,NNW,348,0.0,0.0,97,0.00,CLR,,0.00,WeatherDisplay:10.37,2013-05-10 06:52:00,
2013-05-10 02:57:00,55.1,54.3,29.89,NNW,348,0.0,0.0,97,0.00,CLR,,0.00,WeatherDisplay:10.37,2013-05-10 06:57:00,
2013-05-10 03:02:00,55.0,54.2,29.89,NNW,348,0.0,0.0,97,0.00,CLR,,0.00,WeatherDisplay:10.37,2013-05-10 07:02:00,
2013-05-10 03:07:00,55.0,54.2,29.90,NNW,348,0.0,0.0,97,0.00,CLR,,0.00,WeatherDisplay:10.37,2013-05-10 07:07:00,
2013-05-10 03:12:00,54.9,54.1,29.90,NNW,348,0.1,1.2,97,0.00,CLR,,0.00,WeatherDisplay:10.37,2013-05-10 07:12:00,
2013-05-10 03:17:00,54.7,53.9,29.90,NNW,347,0.3,2.3,97,0.00,CLR,,0.00,WeatherDisplay:10.37,2013-05-10 07:17:00,
2013-05-10 03:22:00,54.6,53.8,29.90,NNW,347,0.0,0.0,97,0.00,CLR,,0.00,WeatherDisplay:10.37,2013-05-10 07:22:00,
2013-05-10 03:27:00,54.7,54.1,29.90,NNW,347,0.0,1.2,98,0.00,CLR,,0.00,WeatherDisplay:10.37,2013-05-10 07:27:00,
2013-05-10 03:32:00,54.6,54.0,29.90,NNW,347,0.0,0.0,98,0.00,CLR,,0.00,WeatherDisplay:10.37,2013-05-10 07:32:00,
2013-05-10 03:37:00,54.4,53.6,29.90,NNW,347,0.0,0.0,97,0.00,CLR,,0.00,WeatherDisplay:10.37,2013-05-10 07:37:00,
2013-05-10 03:42:00,54.2,53.4,29.90,NNW,347,0.0,0.0,97,0.00,CLR,,0.00,WeatherDisplay:10.37,2013-05-10 07:42:00,
2013-05-10 03:47:00,54.2,53.6,29.90,NNW,347,0.0,0.0,98,0.00,CLR,,0.00,WeatherDisplay:10.37,2013-05-10 07:47:00,
2013-05-10 03:52:00,54.2,53.6,29.90,NNW,347,0.0,1.2,98,0.00,CLR,,0.00,WeatherDisplay:10.37,2013-05-10 07:52:00,
2013-05-10 03:57:00,54.2,53.6,29.90,NNW,347,0.0,0.0,98,0.00,CLR,,0.00,WeatherDisplay:10.37,2013-05-10 07:57:00,
2013-05-10 04:02:00,54.1,53.5,29.90,NNW,347,0.0,0.0,98,0.00,CLR,,0.00,WeatherDisplay:10.37,2013-05-10 08:02:00,
2013-05-10 04:07:00,54.1,53.5,29.90,NNW,347,0.2,1.2,98,0.00,CLR,,0.00,WeatherDisplay:10.37,2013-05-10 08:07:00,
2013-05-10 04:12:00,53.9,53.1,29.90,NNW,347,0.5,1.2,97,0.00,CLR,,0.00,WeatherDisplay:10.37,2013-05-10 08:12:00,
2013-05-10 04:17:00,53.8,53.0,29.90,WNW,289,0.5,1.2,97,0.00,CLR,,0.00,WeatherDisplay:10.37,2013-05-10 08:17:00,
2013-05-10 04:22:00,53.7,52.9,29.90,WNW,289,0.0,0.0,97,0.00,CLR,,0.00,WeatherDisplay:10.37,2013-05-10 08:22:00,
2013-05-10 04:27:00,53.7,53.1,29.90,WNW,289,0.0,0.0,98,0.00,CLR,,0.00,WeatherDisplay:10.37,2013-05-10 08:27:00,
2013-05-10 04:32:00,53.7,53.1,29.90,WNW,289,0.0,1.2,98,0.00,CLR,,0.00,WeatherDisplay:10.37,2013-05-10 08:32:00,
2013-05-10 04:37:00,53.6,53.0,29.90,WNW,289,0.0,0.0,98,0.00,CLR,,0.00,WeatherDisplay:10.37,2013-05-10 08:37:00,
2013-05-10 04:42:00,53.6,53.0,29.91,WNW,289,0.0,1.2,98,0.00,CLR,,0.00,WeatherDisplay:10.37,2013-05-10 08:42:00,
2013-05-10 04:47:00,53.6,53.0,29.91,WNW,289,0.0,0.0,98,0.00,CLR,,0.00,WeatherDisplay:10.37,2013-05-10 08:47:00,
2013-05-10 04:52:00,53.6,53.0,29.91,WNW,289,0.0,0.0,98,0.00,CLR,,0.00,WeatherDisplay:10.37,2013-05-10 08:52:00,
2013-05-10 04:57:00,53.5,52.9,29.91,WNW,289,0.0,1.2,98,0.00,CLR,,0.00,WeatherDisplay:10.37,2013-05-10 08:57:00,
2013-05-10 05:02:00,53.4,52.8,29.91,WNW,289,0.0,0.0,98,0.00,CLR,,0.00,WeatherDisplay:10.37,2013-05-10 09:02:00,
2013-05-10 05:07:00,53.4,52.8,29.91,WNW,289,0.0,0.0,98,0.00,CLR,,0.00,WeatherDisplay:10.37,2013-05-10 09:07:00,
2013-05-10 05:12:00,53.4,52.8,29.90,WNW,289,0.0,0.0,98,0.00,CLR,,0.00,WeatherDisplay:10.37,2013-05-10 09:12:00,
2013-05-10 05:17:00,53.5,52.9,29.91,WNW,289,0.0,0.0,98,0.00,CLR,,0.00,WeatherDisplay:10.37,2013-05-10 09:17:00,
2013-05-10 05:22:00,53.5,52.9,29.91,WNW,289,0.0,0.0,98,0.00,CLR,,0.00,WeatherDisplay:10.37,2013-05-10 09:22:00,
2013-05-10 05:27:00,53.4,52.8,29.91,WNW,289,0.0,0.0,98,0.00,CLR,,0.00,WeatherDisplay:10.37,2013-05-10 09:27:00,
2013-05-10 05:32:00,53.4,52.8,29.91,WNW,289,0.0,0.0,98,0.00,CLR,,0.00,WeatherDisplay:10.37,2013-05-10 09:32:00,
2013-05-10 05:37:00,53.4,52.8,29.91,WNW,289,0.0,0.0,98,0.00,CLR,,0.00,WeatherDisplay:10.37,2013-05-10 09:37:00,
2013-05-10 05:42:00,53.4,52.8,29.91,WNW,289,0.0,0.0,98,0.00,CLR,,0.00,WeatherDisplay:10.37,2013-05-10 09:42:00,
2013-05-10 05:47:00,53.4,52.8,29.92,WNW,289,0.0,0.0,98,0.00,CLR,,0.00,WeatherDisplay:10.37,2013-05-10 09:47:00,
2013-05-10 05:52:00,53.3,52.8,29.92,WNW,289,0.0,0.0,98,0.00,CLR,,0.00,WeatherDisplay:10.37,2013-05-10 09:52:00,
2013-05-10 05:57:00,53.3,52.8,29.92,WNW,289,0.0,0.0,98,0.00,CLR,,0.00,WeatherDisplay:10.37,2013-05-10 09:57:00,
2013-05-10 06:02:00,53.3,52.8,29.92,WNW,289,0.0,0.0,98,0.00,CLR,,0.00,WeatherDisplay:10.37,2013-05-10 10:02:00,
2013-05-10 06:07:00,53.3,52.8,29.92,WNW,289,0.0,0.0,98,0.00,CLR,,0.00,WeatherDisplay:10.37,2013-05-10 10:07:00,
2013-05-10 06:12:00,53.2,52.7,29.93,WNW,289,0.0,0.0,98,0.00,CLR,,0.00,WeatherDisplay:10.37,2013-05-10 10:12:00,
2013-05-10 06:17:00,53.2,52.7,29.93,WNW,289,0.0,0.0,98,0.00,CLR,,0.00,WeatherDisplay:10.37,2013-05-10 10:17:00,
2013-05-10 06:22:00,53.2,52.7,29.92,WNW,289,0.0,0.0,98,0.00,CLR,,0.00,WeatherDisplay:10.37,2013-05-10 10:22:00,
2013-05-10 06:27:00,53.2,52.7,29.92,WNW,289,0.0,0.0,98,0.00,CLR,,0.00,WeatherDisplay:10.37,2013-05-10 10:27:00,
2013-05-10 06:32:00,53.2,52.7,29.92,WNW,289,0.0,0.0,98,0.00,CLR,,0.00,WeatherDisplay:10.37,2013-05-10 10:32:00,
2013-05-10 06:37:00,53.2,52.7,29.93,WNW,289,0.0,0.0,98,0.00,CLR,,0.00,WeatherDisplay:10.37,2013-05-10 10:37:00,
2013-05-10 06:42:00,53.3,52.8,29.92,WNW,289,0.0,0.0,98,0.00,CLR,,0.00,WeatherDisplay:10.37,2013-05-10 10:42:00,
2013-05-10 06:47:00,53.3,52.8,29.92,WNW,289,0.0,0.0,98,0.00,CLR,,0.00,WeatherDisplay:10.37,2013-05-10 10:47:00,
2013-05-10 06:52:00,53.5,52.9,29.92,WNW,289,0.0,0.0,98,0.00,CLR,,0.00,WeatherDisplay:10.37,2013-05-10 10:52:00,
2013-05-10 06:57:00,53.6,53.0,29.92,WNW,289,0.0,0.0,98,0.00,CLR,,0.00,WeatherDisplay:10.37,2013-05-10 10:57:00,
2013-05-10 07:02:00,53.6,53.0,29.93,WNW,289,0.0,0.0,98,0.00,CLR,,0.00,WeatherDisplay:10.37,2013-05-10 11:02:00,
2013-05-10 07:07:00,53.8,53.2,29.93,WNW,288,0.0,0.0,98,0.00,CLR,,0.00,WeatherDisplay:10.37,2013-05-10 11:07:00,
2013-05-10 07:12:00,53.9,53.3,29.93,WNW,288,0.0,0.0,98,0.00,CLR,,0.00,WeatherDisplay:10.37,2013-05-10 11:12:00,
2013-05-10 07:17:00,54.0,53.4,29.93,WNW,289,0.0,0.0,98,0.00,CLR,,0.00,WeatherDisplay:10.37,2013-05-10 11:17:00,
2013-05-10 07:22:00,54.1,53.5,29.94,WSW,237,0.1,2.3,98,0.00,CLR,,0.00,WeatherDisplay:10.37,2013-05-10 11:22:00,
2013-05-10 07:27:00,54.2,53.6,29.94,WSW,237,0.2,2.3,98,0.00,CLR,,0.00,WeatherDisplay:10.37,2013-05-10 11:27:00,
2013-05-10 07:32:00,54.4,53.8,29.94,WSW,237,0.0,0.0,98,0.00,CLR,,0.00,WeatherDisplay:10.37,2013-05-10 11:32:00,
2013-05-10 07:37:00,54.6,54.0,29.94,WSW,237,0.0,1.2,98,0.00,CLR,,0.00,WeatherDisplay:10.37,2013-05-10 11:37:00,
2013-05-10 07:42:00,55.0,54.4,29.94,WSW,237,0.0,0.0,98,0.00,CLR,,0.00,WeatherDisplay:10.37,2013-05-10 11:42:00,
2013-05-10 07:47:00,55.2,54.6,29.94,WSW,237,0.2,2.3,98,0.00,OVC,,0.00,WeatherDisplay:10.37,2013-05-10 11:47:00,
2013-05-10 07:52:00,55.5,54.9,29.94,SW,231,0.0,2.3,98,0.00,OVC,,0.00,WeatherDisplay:10.37,2013-05-10 11:52:00,
2013-05-10 07:57:00,55.6,55.0,29.94,WSW,246,0.0,1.2,98,0.00,OVC,,0.00,WeatherDisplay:10.37,2013-05-10 11:57:00,
2013-05-10 08:02:00,55.7,55.1,29.94,SW,222,0.0,0.0,98,0.00,OVC,,0.00,WeatherDisplay:10.37,2013-05-10 12:02:00,
2013-05-10 08:07:00,55.9,55.3,29.94,SW,222,0.8,2.0,98,0.00,OVC,,0.00,WeatherDisplay:10.37,2013-05-10 12:07:00,
2013-05-10 08:12:00,56.1,55.5,29.95,SW,224,0.0,1.0,98,0.00,OVC,,0.00,WeatherDisplay:10.37,2013-05-10 12:12:00,
2013-05-10 08:17:00,56.2,55.6,29.95,SW,215,0.3,2.3,98,0.00,OVC,,0.00,WeatherDisplay:10.37,2013-05-10 12:17:00,
2013-05-10 08:22:00,56.6,56.0,29.95,SW,217,0.0,1.2,98,0.00,OVC,,0.00,WeatherDisplay:10.37,2013-05-10 12:22:00,
2013-05-10 08:27:00,57.2,56.6,29.95,SSW,212,0.0,0.0,98,0.00,OVC,,0.00,WeatherDisplay:10.37,2013-05-10 12:27:00,
2013-05-10 08:32:00,57.7,57.1,29.95,SW,219,0.3,1.2,98,0.00,OVC,,0.00,WeatherDisplay:10.37,2013-05-10 12:32:00,
2013-05-10 08:37:00,57.8,57.2,29.95,West,261,1.3,3.5,98,0.00,OVC,,0.00,WeatherDisplay:10.37,2013-05-10 12:37:00,
2013-05-10 08:42:00,58.1,57.8,29.95,WNW,294,0.4,2.3,99,0.00,OVC,,0.00,WeatherDisplay:10.37,2013-05-10 12:42:00,
2013-05-10 08:47:00,58.6,58.3,29.95,WNW,293,0.1,1.2,99,0.00,BKN,,0.00,WeatherDisplay:10.37,2013-05-10 12:47:00,
2013-05-10 08:52:00,59.1,58.8,29.95,SW,233,0.1,1.2,99,0.00,BKN,,0.00,WeatherDisplay:10.37,2013-05-10 12:52:00,
2013-05-10 08:57:00,59.7,59.4,29.94,SW,233,0.4,1.2,99,0.00,BKN,,0.00,WeatherDisplay:10.37,2013-05-10 12:57:00,
2013-05-10 09:02:00,60.1,59.8,29.95,NNW,344,0.6,2.3,99,0.00,SCT,,0.00,WeatherDisplay:10.37,2013-05-10 13:02:00,
2013-05-10 09:07:00,60.3,60.0,29.95,North,360,0.3,1.2,99,0.00,SCT,,0.00,WeatherDisplay:10.37,2013-05-10 13:07:00,
2013-05-10 09:12:00,60.5,60.2,29.95,WSW,252,0.9,2.3,99,0.00,SCT,,0.00,WeatherDisplay:10.37,2013-05-10 13:12:00,
2013-05-10 09:17:00,60.6,60.0,29.95,NNW,332,0.0,1.2,98,0.00,SCT,,0.00,WeatherDisplay:10.37,2013-05-10 13:17:00,
2013-05-10 09:43:00,63.8,59.2,29.94,ESE,105,2.0,3.0,85,0.00,SCT,,0.00,WeatherDisplay:10.37,2013-05-10 13:43:00,
2013-05-10 09:48:00,64.5,59.6,29.94,ESE,103,0.8,2.0,84,0.00,SCT,,0.00,WeatherDisplay:10.37,2013-05-10 13:48:00,
2013-05-10 09:53:00,65.0,59.7,29.94,East,100,1.6,2.3,83,0.00,SCT,,0.00,WeatherDisplay:10.37,2013-05-10 13:53:00,
2013-05-10 09:58:00,65.4,59.4,29.94,East,94,1.6,2.3,81,0.00,SCT,,0.00,WeatherDisplay:10.37,2013-05-10 13:58:00,
2013-05-10 10:03:00,65.7,58.7,29.94,West,278,1.0,3.5,78,0.00,FEW,,0.00,WeatherDisplay:10.37,2013-05-10 14:03:00,
2013-05-10 10:08:00,66.3,59.6,29.94,North,5,1.5,3.5,79,0.00,FEW,,0.00,WeatherDisplay:10.37,2013-05-10 14:08:00,
2013-05-10 10:13:00,66.5,58.7,29.94,SE,136,0.5,2.0,76,0.01,RA,,0.01,WeatherDisplay:10.37,2013-05-10 14:13:00,
2013-05-10 10:18:00,67.0,59.2,29.94,WSW,245,0.0,1.2,76,0.01,RA,,0.01,WeatherDisplay:10.37,2013-05-10 14:18:00,
2013-05-10 10:23:00,67.3,58.3,29.94,North,360,1.4,3.5,73,0.01,FEW,,0.01,WeatherDisplay:10.37,2013-05-10 14:23:00,
2013-05-10 10:28:00,67.5,59.7,29.94,ENE,69,2.2,3.5,76,0.01,FEW,,0.01,WeatherDisplay:10.37,2013-05-10 14:28:00,
2013-05-10 10:33:00,67.7,58.3,29.94,North,355,2.6,5.8,72,0.01,FEW,,0.01,WeatherDisplay:10.37,2013-05-10 14:33:00,
2013-05-10 10:38:00,67.9,57.4,29.94,East,88,0.5,2.3,69,0.01,FEW,,0.01,WeatherDisplay:10.37,2013-05-10 14:38:00,
2013-05-10 10:43:00,68.3,57.7,29.94,ENE,68,0.8,2.3,69,0.01,FEW,,0.01,WeatherDisplay:10.37,2013-05-10 14:43:00,
2013-05-10 10:48:00,68.7,58.1,29.94,South,171,0.6,2.3,69,0.01,FEW,,0.01,WeatherDisplay:10.37,2013-05-10 14:48:00,
2013-05-10 10:53:00,69.1,58.1,29.94,NE,38,2.3,3.5,68,0.01,FEW,,0.01,WeatherDisplay:10.37,2013-05-10 14:53:00,
2013-05-10 10:58:00,69.2,56.5,29.94,WNW,290,2.1,3.5,64,0.01,FEW,,0.01,WeatherDisplay:10.37,2013-05-10 14:58:00,
2013-05-10 11:03:00,69.4,59.2,29.94,SE,144,1.3,3.5,70,0.01,SCT,,0.01,WeatherDisplay:10.37,2013-05-10 15:03:00,
2013-05-10 11:08:00,69.6,57.3,29.94,WSW,253,3.0,3.5,65,0.01,SCT,,0.01,WeatherDisplay:10.37,2013-05-10 15:08:00,
2013-05-10 11:13:00,69.8,58.8,29.94,West,271,0.9,3.5,68,0.00,SCT,,0.01,WeatherDisplay:10.37,2013-05-10 15:13:00,
2013-05-10 11:18:00,70.3,58.4,29.94,SW,227,0.5,3.5,66,0.00,SCT,,0.01,WeatherDisplay:10.37,2013-05-10 15:18:00,
2013-05-10 11:23:00,71.0,58.6,29.94,North,11,0.7,1.2,65,0.00,SCT,,0.01,WeatherDisplay:10.37,2013-05-10 15:23:00,
2013-05-10 11:28:00,71.3,58.1,29.94,West,265,1.1,4.0,63,0.00,SCT,,0.01,WeatherDisplay:10.37,2013-05-10 15:28:00,
2013-05-10 11:33:00,71.6,58.8,29.94,WSW,252,1.6,4.0,64,0.00,SCT,,0.01,WeatherDisplay:10.37,2013-05-10 15:33:00,
2013-05-10 11:38:00,72.1,58.4,29.94,South,180,1.4,2.3,62,0.00,SCT,,0.01,WeatherDisplay:10.37,2013-05-10 15:38:00,
2013-05-10 11:43:00,72.2,58.0,29.94,West,265,1.8,5.8,61,0.00,SCT,,0.01,WeatherDisplay:10.37,2013-05-10 15:43:00,
2013-05-10 11:48:00,72.0,56.9,29.94,West,273,3.9,5.8,59,0.00,SCT,,0.01,WeatherDisplay:10.37,2013-05-10 15:48:00,
2013-05-10 11:53:00,71.7,57.1,29.94,SE,134,0.5,3.5,60,0.00,SCT,,0.01,WeatherDisplay:10.37,2013-05-10 15:53:00,
2013-05-10 11:58:00,72.3,58.1,29.94,East,81,1.5,4.6,61,0.00,SCT,,0.01,WeatherDisplay:10.37,2013-05-10 15:58:00,
2013-05-10 12:03:00,72.9,58.2,29.94,SSW,196,1.6,3.5,60,0.00,SCT,,0.01,WeatherDisplay:10.37,2013-05-10 16:03:00,
2013-05-10 12:08:00,73.5,59.2,29.94,WSW,250,3.1,5.8,61,0.00,SCT,,0.01,WeatherDisplay:10.37,2013-05-10 16:08:00,
2013-05-10 12:13:00,73.4,57.2,29.93,WSW,251,2.4,6.0,57,0.00,SCT,,0.01,WeatherDisplay:10.37,2013-05-10 16:13:00,
2013-05-10 12:18:00,73.3,57.1,29.93,WNW,296,0.9,2.3,57,0.00,SCT,,0.01,WeatherDisplay:10.37,2013-05-10 16:18:00,
2013-05-10 12:23:00,73.7,56.5,29.93,West,269,3.2,5.8,55,0.00,SCT,,0.01,WeatherDisplay:10.37,2013-05-10 16:23:00,
2013-05-10 12:28:00,74.0,57.8,29.93,West,260,1.3,3.5,57,0.00,SCT,,0.01,WeatherDisplay:10.37,2013-05-10 16:28:00,
2013-05-10 12:33:00,75.0,58.7,29.93,East,96,2.3,3.5,57,0.00,SCT,,0.01,WeatherDisplay:10.37,2013-05-10 16:33:00,
2013-05-10 12:38:00,75.0,56.7,29.93,WNW,283,2.3,3.5,53,0.00,SCT,,0.01,WeatherDisplay:10.37,2013-05-10 16:38:00,
2013-05-10 12:43:00,74.5,56.2,29.93,WNW,294,4.5,8.1,53,0.00,SCT,,0.01,WeatherDisplay:10.37,2013-05-10 16:43:00,
2013-05-10 12:48:00,74.7,56.4,29.93,SW,226,5.0,8.1,53,0.00,SCT,,0.01,WeatherDisplay:10.37,2013-05-10 16:48:00,
2013-05-10 12:53:00,75.1,56.8,29.93,ENE,78,0.6,2.3,53,0.00,SCT,,0.01,WeatherDisplay:10.37,2013-05-10 16:53:00,
2013-05-10 12:58:00,75.3,55.9,29.92,East,101,3.1,8.1,51,0.00,SCT,,0.01,WeatherDisplay:10.37,2013-05-10 16:58:00,
2013-05-10 13:03:00,75.4,57.1,29.92,SW,221,1.2,3.5,53,0.00,CLR,,0.01,WeatherDisplay:10.37,2013-05-10 17:03:00,
2013-05-10 13:08:00,75.7,55.7,29.92,SW,234,2.2,3.5,50,0.00,CLR,,0.01,WeatherDisplay:10.37,2013-05-10 17:08:00,
2013-05-10 13:13:00,75.7,56.8,29.92,WSW,248,4.3,9.2,52,0.00,CLR,,0.01,WeatherDisplay:10.37,2013-05-10 17:13:00,
2013-05-10 13:18:00,75.9,56.5,29.92,WSW,244,0.8,4.6,51,0.00,CLR,,0.01,WeatherDisplay:10.37,2013-05-10 17:18:00,
2013-05-10 13:23:00,76.4,56.9,29.91,NE,43,2.1,3.5,51,0.00,CLR,,0.01,WeatherDisplay:10.37,2013-05-10 17:23:00,
2013-05-10 13:28:00,76.9,55.7,29.92,ESE,110,2.7,4.0,48,0.00,CLR,,0.01,WeatherDisplay:10.37,2013-05-10 17:28:00,
2013-05-10 13:33:00,76.7,56.1,29.92,SSE,161,1.8,3.5,49,0.00,CLR,,0.01,WeatherDisplay:10.37,2013-05-10 17:33:00,
2013-05-10 13:38:00,76.7,56.1,29.91,WSW,246,2.7,4.6,49,0.00,CLR,,0.01,WeatherDisplay:10.37,2013-05-10 17:38:00,
2013-05-10 13:43:00,76.8,56.8,29.91,SW,216,1.1,3.5,50,0.00,CLR,,0.01,WeatherDisplay:10.37,2013-05-10 17:43:00,
2013-05-10 13:48:00,77.5,56.8,29.91,NW,317,1.3,3.5,49,0.00,CLR,,0.01,WeatherDisplay:10.37,2013-05-10 17:48:00,
2013-05-10 13:53:00,78.1,55.6,29.91,West,266,4.3,8.1,46,0.00,CLR,,0.01,WeatherDisplay:10.37,2013-05-10 17:53:00,
2013-05-10 13:58:00,77.9,55.5,29.91,NW,305,3.0,5.8,46,0.00,CLR,,0.01,WeatherDisplay:10.37,2013-05-10 17:58:00,
2013-05-10 14:03:00,76.9,55.1,29.91,ENE,58,1.9,3.5,47,0.00,CLR,,0.01,WeatherDisplay:10.37,2013-05-10 18:03:00,
2013-05-10 14:08:00,76.7,55.0,29.91,WNW,302,0.0,2.3,47,0.00,CLR,,0.01,WeatherDisplay:10.37,2013-05-10 18:08:00,
2013-05-10 14:13:00,77.0,55.2,29.91,ESE,108,1.9,4.0,47,0.00,CLR,,0.01,WeatherDisplay:10.37,2013-05-10 18:13:00,
2013-05-10 14:18:00,77.0,56.4,29.91,ESE,109,0.1,1.2,49,0.00,CLR,,0.01,WeatherDisplay:10.37,2013-05-10 18:18:00,
2013-05-10 14:23:00,77.5,56.3,29.90,SW,215,1.3,4.6,48,0.00,CLR,,0.01,WeatherDisplay:10.37,2013-05-10 18:23:00,
2013-05-10 14:28:00,78.0,54.9,29.90,NNW,340,0.8,4.6,45,0.00,CLR,,0.01,WeatherDisplay:10.37,2013-05-10 18:28:00,
2013-05-10 14:33:00,78.0,54.9,29.90,East,85,1.4,3.5,45,0.00,CLR,,0.01,WeatherDisplay:10.37,2013-05-10 18:33:00,
2013-05-10 14:38:00,78.0,56.1,29.91,SSE,156,0.3,1.2,47,0.00,CLR,,0.01,WeatherDisplay:10.37,2013-05-10 18:38:00,
2013-05-10 14:43:00,78.3,55.8,29.91,NW,311,0.6,2.0,46,0.00,CLR,,0.01,WeatherDisplay:10.37,2013-05-10 18:43:00,
2013-05-10 14:48:00,78.7,55.6,29.90,South,175,1.5,4.6,45,0.00,CLR,,0.01,WeatherDisplay:10.37,2013-05-10 18:48:00,
2013-05-10 14:53:00,78.8,55.7,29.90,SW,229,0.1,1.0,45,0.00,CLR,,0.01,WeatherDisplay:10.37,2013-05-10 18:53:00,
2013-05-10 14:58:00,79.1,56.5,29.90,SW,231,0.7,2.3,46,0.00,CLR,,0.01,WeatherDisplay:10.37,2013-05-10 18:58:00,
2013-05-10 15:03:00,79.3,55.5,29.90,SW,223,1.1,3.5,44,0.00,SCT,,0.01,WeatherDisplay:10.37,2013-05-10 19:03:00,
2013-05-10 15:08:00,79.3,57.3,29.90,West,271,2.4,4.0,47,0.00,SCT,,0.01,WeatherDisplay:10.37,2013-05-10 19:08:00,
2013-05-10 15:13:00,79.0,55.2,29.90,ESE,111,2.4,4.6,44,0.00,SCT,,0.01,WeatherDisplay:10.37,2013-05-10 19:13:00,
2013-05-10 15:18:00,79.2,56.0,29.91,SW,223,2.8,3.5,45,0.00,SCT,,0.01,WeatherDisplay:10.37,2013-05-10 19:18:00,
2013-05-10 15:23:00,79.3,55.5,29.90,WSW,238,1.4,4.6,44,0.00,SCT,,0.01,WeatherDisplay:10.37,2013-05-10 19:23:00,
2013-05-10 15:28:00,79.1,55.3,29.90,South,173,2.3,3.5,44,0.00,SCT,,0.01,WeatherDisplay:10.37,2013-05-10 19:28:00,
2013-05-10 15:33:00,78.9,56.4,29.90,South,187,0.0,1.0,46,0.00,SCT,,0.01,WeatherDisplay:10.37,2013-05-10 19:33:00,
2013-05-10 15:38:00,78.6,54.9,29.90,SSW,192,1.3,3.0,44,0.00,SCT,,0.01,WeatherDisplay:10.37,2013-05-10 19:38:00,
2013-05-10 15:43:00,78.3,54.6,29.90,WSW,258,1.1,2.3,44,0.00,SCT,,0.01,WeatherDisplay:10.37,2013-05-10 19:43:00,
2013-05-10 15:48:00,78.0,56.1,29.90,SSW,205,1.0,3.0,47,0.00,SCT,,0.01,WeatherDisplay:10.37,2013-05-10 19:48:00,
2013-05-10 15:53:00,78.0,54.3,29.90,SSE,168,2.4,3.5,44,0.00,SCT,,0.01,WeatherDisplay:10.37,2013-05-10 19:53:00,
2013-05-10 15:58:00,78.2,55.1,29.90,NE,55,2.9,6.9,45,0.00,SCT,,0.01,WeatherDisplay:10.37,2013-05-10 19:58:00,
2013-05-10 16:03:00,78.5,55.4,29.90,ESE,115,0.4,2.3,45,0.00,FEW,,0.01,WeatherDisplay:10.37,2013-05-10 20:03:00,
2013-05-10 16:08:00,78.7,55.0,29.90,SSE,165,0.6,3.0,44,0.00,FEW,,0.01,WeatherDisplay:10.37,2013-05-10 20:08:00,
2013-05-10 16:13:00,78.7,55.6,29.90,ENE,65,0.7,1.2,45,0.00,FEW,,0.01,WeatherDisplay:10.37,2013-05-10 20:13:00,
2013-05-10 16:18:00,78.7,54.3,29.90,SE,129,1.2,2.3,43,0.00,FEW,,0.01,WeatherDisplay:10.37,2013-05-10 20:18:00,
2013-05-10 16:23:00,78.9,53.9,29.90,South,170,1.2,3.5,42,0.00,FEW,,0.01,WeatherDisplay:10.37,2013-05-10 20:23:00,
2013-05-10 16:28:00,78.9,56.4,29.90,SSE,167,3.9,5.8,46,0.00,FEW,,0.01,WeatherDisplay:10.37,2013-05-10 20:28:00,
2013-05-10 16:33:00,79.0,58.8,29.90,SSE,161,1.4,4.0,50,0.00,FEW,,0.01,WeatherDisplay:10.37,2013-05-10 20:33:00,
2013-05-10 16:38:00,78.5,58.3,29.90,East,83,4.8,9.2,50,0.00,FEW,,0.01,WeatherDisplay:10.37,2013-05-10 20:38:00,
2013-05-10 16:43:00,77.8,58.8,29.90,South,175,3.6,8.0,52,0.00,FEW,,0.01,WeatherDisplay:10.37,2013-05-10 20:43:00,
2013-05-10 16:48:00,77.5,58.5,29.90,SE,138,1.9,4.6,52,0.00,FEW,,0.01,WeatherDisplay:10.37,2013-05-10 20:48:00,
2013-05-10 16:53:00,77.6,59.1,29.90,SSE,161,4.6,8.1,53,0.00,FEW,,0.01,WeatherDisplay:10.37,2013-05-10 20:53:00,
2013-05-10 16:58:00,77.2,58.2,29.90,SSE,159,5.3,11.5,52,0.00,FEW,,0.01,WeatherDisplay:10.37,2013-05-10 20:58:00,
2013-05-10 17:03:00,76.6,58.2,29.90,South,171,4.9,8.0,53,0.00,SCT,,0.01,WeatherDisplay:10.37,2013-05-10 21:03:00,
2013-05-10 17:08:00,75.7,58.4,29.90,SSE,148,5.2,8.1,55,0.00,SCT,,0.01,WeatherDisplay:10.37,2013-05-10 21:08:00,
2013-05-10 17:13:00,74.9,58.6,29.90,ESE,106,1.3,2.3,57,0.00,SCT,,0.01,WeatherDisplay:10.37,2013-05-10 21:13:00,
2013-05-10 17:18:00,74.5,58.3,29.90,SE,128,1.7,4.6,57,0.00,SCT,,0.01,WeatherDisplay:10.37,2013-05-10 21:18:00,
2013-05-10 17:23:00,73.9,58.7,29.90,ENE,64,2.6,4.6,59,0.00,SCT,,0.01,WeatherDisplay:10.37,2013-05-10 21:23:00,
2013-05-10 17:28:00,73.4,58.2,29.90,SE,129,4.2,8.1,59,0.00,SCT,,0.01,WeatherDisplay:10.37,2013-05-10 21:28:00,
2013-05-10 17:33:00,73.1,58.4,29.90,ESE,117,1.7,4.6,60,0.00,SCT,,0.01,WeatherDisplay:10.37,2013-05-10 21:33:00,
2013-05-10 17:38:00,73.1,58.4,29.89,ESE,103,1.5,4.6,60,0.00,SCT,,0.01,WeatherDisplay:10.37,2013-05-10 21:38:00,
2013-05-10 17:43:00,73.2,58.5,29.89,SE,134,3.2,6.9,60,0.00,SCT,,0.01,WeatherDisplay:10.37,2013-05-10 21:43:00,
2013-05-10 17:48:00,73.2,58.5,29.89,ENE,78,0.4,4.0,60,0.00,SCT,,0.01,WeatherDisplay:10.37,2013-05-10 21:48:00,
2013-05-10 17:53:00,73.1,58.4,29.89,East,88,0.4,2.3,60,0.00,SCT,,0.01,WeatherDisplay:10.37,2013-05-10 21:53:00,
2013-05-10 17:58:00,73.1,58.4,29.89,ESE,113,1.2,3.5,60,0.00,SCT,,0.01,WeatherDisplay:10.37,2013-05-10 21:58:00,
2013-05-10 17:59:00,73.1,58.4,29.89,ESE,113,0.5,2.3,60,0.00,SCT,,0.01,WeatherDisplay:10.37,2013-05-10 21:59:00,
2013-05-10 18:04:00,73.0,58.3,29.89,SE,140,2.6,4.0,60,0.00,CLR,,0.01,WeatherDisplay:10.37,2013-05-10 22:04:00,
2013-05-10 18:09:00,72.9,58.2,29.89,ENE,63,1.5,3.5,60,0.00,CLR,,0.01,WeatherDisplay:10.37,2013-05-10 22:09:00,
2013-05-10 18:14:00,72.8,58.1,29.89,South,182,1.8,3.5,60,0.00,CLR,,0.01,WeatherDisplay:10.37,2013-05-10 22:14:00,
2013-05-10 18:19:00,72.9,58.7,29.89,ESE,109,3.2,4.6,61,0.00,CLR,,0.01,WeatherDisplay:10.37,2013-05-10 22:19:00,
2013-05-10 18:24:00,73.0,58.8,29.89,ESE,119,0.3,3.5,61,0.00,CLR,,0.01,WeatherDisplay:10.37,2013-05-10 22:24:00,
2013-05-10 18:29:00,72.9,58.2,29.89,South,170,3.3,5.8,60,0.00,CLR,,0.01,WeatherDisplay:10.37,2013-05-10 22:29:00,
2013-05-10 18:34:00,72.8,58.1,29.89,SE,143,3.5,6.9,60,0.00,CLR,,0.01,WeatherDisplay:10.37,2013-05-10 22:34:00,
2013-05-10 18:39:00,72.7,58.5,29.89,South,181,2.4,4.0,61,0.00,CLR,,0.01,WeatherDisplay:10.37,2013-05-10 22:39:00,
2013-05-10 18:44:00,72.4,58.6,29.89,SE,143,1.8,3.5,62,0.00,CLR,,0.01,WeatherDisplay:10.37,2013-05-10 22:44:00,
2013-05-10 18:49:00,72.2,58.5,29.89,SE,142,1.2,2.0,62,0.00,CLR,,0.01,WeatherDisplay:10.37,2013-05-10 22:49:00,
2013-05-10 18:54:00,72.1,59.2,29.90,SE,142,0.1,2.3,64,0.00,CLR,,0.01,WeatherDisplay:10.37,2013-05-10 22:54:00,
2013-05-10 18:59:00,71.8,59.0,29.90,SSE,147,0.7,1.0,64,0.00,CLR,,0.01,WeatherDisplay:10.37,2013-05-10 22:59:00,
2013-05-10 19:04:00,71.7,59.7,29.91,SSE,147,0.1,1.2,66,0.00,CLR,,0.01,WeatherDisplay:10.37,2013-05-10 23:04:00,
2013-05-10 19:09:00,71.4,60.3,29.91,SSE,147,0.0,0.0,68,0.00,CLR,,0.01,WeatherDisplay:10.37,2013-05-10 23:09:00,
2013-05-10 19:14:00,71.0,59.9,29.91,SSE,147,0.0,0.0,68,0.00,CLR,,0.01,WeatherDisplay:10.37,2013-05-10 23:14:00,
2013-05-10 19:19:00,70.5,60.6,29.91,SSE,147,0.0,0.0,71,0.00,CLR,,0.01,WeatherDisplay:10.37,2013-05-10 23:19:00,
2013-05-10 19:24:00,70.2,60.4,29.91,SSE,147,0.0,0.0,71,0.00,CLR,,0.01,WeatherDisplay:10.37,2013-05-10 23:24:00,
2013-05-10 19:29:00,69.8,59.6,29.91,SSE,147,0.0,0.0,70,0.00,CLR,,0.01,WeatherDisplay:10.37,2013-05-10 23:29:00,
2013-05-10 19:34:00,69.4,60.0,29.90,SSE,147,0.0,0.0,72,0.00,CLR,,0.01,WeatherDisplay:10.37,2013-05-10 23:34:00,
2013-05-10 19:39:00,69.0,60.0,29.91,SSE,147,0.0,0.0,73,0.00,CLR,,0.01,WeatherDisplay:10.37,2013-05-10 23:39:00,
2013-05-10 19:44:00,68.6,60.4,29.90,South,174,0.0,0.0,75,0.00,CLR,,0.01,WeatherDisplay:10.37,2013-05-10 23:44:00,
2013-05-10 19:49:00,68.1,60.2,29.91,South,174,0.0,0.0,76,0.00,CLR,,0.01,WeatherDisplay:10.37,2013-05-10 23:49:00,
2013-05-10 19:54:00,67.8,60.3,29.91,South,174,0.0,0.0,77,0.00,CLR,,0.01,WeatherDisplay:10.37,2013-05-10 23:54:00,
2013-05-10 19:59:00,67.5,59.7,29.90,South,174,0.2,1.0,76,0.00,CLR,,0.01,WeatherDisplay:10.37,2013-05-10 23:59:00,
2013-05-10 20:04:00,67.4,59.6,29.91,South,174,0.0,0.0,76,0.00,CLR,,0.01,WeatherDisplay:10.37,2013-05-11 00:04:00,
2013-05-10 20:09:00,67.2,59.4,29.91,South,174,0.0,0.0,76,0.00,CLR,,0.01,WeatherDisplay:10.37,2013-05-11 00:09:00,
2013-05-10 20:14:00,67.1,59.3,29.91,South,173,0.3,2.3,76,0.00,CLR,,0.01,WeatherDisplay:10.37,2013-05-11 00:14:00,
2013-05-10 20:19:00,66.9,59.5,29.91,South,173,0.0,1.2,77,0.00,CLR,,0.01,WeatherDisplay:10.37,2013-05-11 00:19:00,
2013-05-10 20:24:00,66.6,59.9,29.90,East,96,0.1,1.2,79,0.00,CLR,,0.01,WeatherDisplay:10.37,2013-05-11 00:24:00,
2013-05-10 20:29:00,66.3,59.2,29.91,ESE,111,0.3,2.0,78,0.00,CLR,,0.01,WeatherDisplay:10.37,2013-05-11 00:29:00,
2013-05-10 20:34:00,66.1,59.4,29.91,ESE,111,0.0,0.0,79,0.00,CLR,,0.01,WeatherDisplay:10.37,2013-05-11 00:34:00,
2013-05-10 20:39:00,65.9,59.2,29.90,ESE,111,0.0,0.0,79,0.00,CLR,,0.01,WeatherDisplay:10.37,2013-05-11 00:39:00,
2013-05-10 20:44:00,65.7,59.4,29.91,ESE,111,0.0,0.0,80,0.00,CLR,,0.01,WeatherDisplay:10.37,2013-05-11 00:44:00,
2013-05-10 20:49:00,65.5,59.2,29.91,ESE,111,0.0,0.0,80,0.00,CLR,,0.01,WeatherDisplay:10.37,2013-05-11 00:49:00,
2013-05-10 20:54:00,65.4,59.1,29.91,ESE,111,0.0,1.2,80,0.00,CLR,,0.01,WeatherDisplay:10.37,2013-05-11 00:54:00,
2013-05-10 20:59:00,65.2,59.2,29.91,ESE,111,0.0,0.0,81,0.00,CLR,,0.01,WeatherDisplay:10.37,2013-05-11 00:59:00,
2013-05-10 21:04:00,65.0,59.4,29.91,ESE,111,0.0,0.0,82,0.00,CLR,,0.01,WeatherDisplay:10.37,2013-05-11 01:04:00,
2013-05-10 21:09:00,64.7,59.1,29.90,ESE,111,0.0,0.0,82,0.00,CLR,,0.01,WeatherDisplay:10.37,2013-05-11 01:09:00,
2013-05-10 21:14:00,64.4,59.1,29.90,ESE,111,0.1,1.2,83,0.00,CLR,,0.01,WeatherDisplay:10.37,2013-05-11 01:14:00,
2013-05-10 21:19:00,64.1,58.8,29.91,ESE,111,0.0,0.0,83,0.00,CLR,,0.01,WeatherDisplay:10.37,2013-05-11 01:19:00,
2013-05-10 21:24:00,63.8,58.5,29.91,ESE,111,0.0,0.0,83,0.00,CLR,,0.01,WeatherDisplay:10.37,2013-05-11 01:24:00,
2013-05-10 21:29:00,63.5,58.6,29.91,ESE,111,0.0,0.0,84,0.00,CLR,,0.01,WeatherDisplay:10.37,2013-05-11 01:29:00,
2013-05-10 21:34:00,63.3,58.7,29.91,ESE,111,0.0,1.2,85,0.00,CLR,,0.01,WeatherDisplay:10.37,2013-05-11 01:34:00,
2013-05-10 21:39:00,63.2,58.6,29.91,ESE,111,0.0,0.0,85,0.00,CLR,,0.01,WeatherDisplay:10.37,2013-05-11 01:39:00,
2013-05-10 21:44:00,63.1,58.5,29.91,ESE,111,0.0,0.0,85,0.00,CLR,,0.01,WeatherDisplay:10.37,2013-05-11 01:44:00,
2013-05-10 21:49:00,63.0,58.7,29.91,ESE,111,0.0,0.0,86,0.00,CLR,,0.01,WeatherDisplay:10.37,2013-05-11 01:49:00,
2013-05-10 21:54:00,62.8,58.5,29.91,ESE,111,0.0,0.0,86,0.00,CLR,,0.01,WeatherDisplay:10.37,2013-05-11 01:54:00,
2013-05-10 21:59:00,62.6,58.7,29.91,ESE,111,0.0,0.0,87,0.00,CLR,,0.01,WeatherDisplay:10.37,2013-05-11 01:59:00,
2013-05-10 22:04:00,62.5,58.6,29.91,ESE,111,0.0,0.0,87,0.00,CLR,,0.01,WeatherDisplay:10.37,2013-05-11 02:04:00,
2013-05-10 22:09:00,62.4,58.5,29.91,ESE,111,0.0,0.0,87,0.00,CLR,,0.01,WeatherDisplay:10.37,2013-05-11 02:09:00,
2013-05-10 22:14:00,62.3,58.7,29.91,ESE,111,0.0,0.0,88,0.00,CLR,,0.01,WeatherDisplay:10.37,2013-05-11 02:14:00,
2013-05-10 22:19:00,62.2,58.6,29.91,ESE,111,0.0,0.0,88,0.00,CLR,,0.01,WeatherDisplay:10.37,2013-05-11 02:19:00,
2013-05-10 22:24:00,62.1,58.5,29.90,ESE,111,0.0,0.0,88,0.00,CLR,,0.01,WeatherDisplay:10.37,2013-05-11 02:24:00,
2013-05-10 22:29:00,62.0,58.4,29.90,ESE,111,0.4,1.2,88,0.00,CLR,,0.01,WeatherDisplay:10.37,2013-05-11 02:29:00,
2013-05-10 22:34:00,61.8,57.9,29.90,ESE,111,0.0,0.0,87,0.00,CLR,,0.01,WeatherDisplay:10.37,2013-05-11 02:34:00,
2013-05-10 22:39:00,61.8,57.6,29.90,SSW,209,0.1,0.0,86,0.00,CLR,,0.01,WeatherDisplay:10.37,2013-05-11 02:39:00,
2013-05-10 22:44:00,62.1,57.5,29.91,WSW,250,0.8,3.5,85,0.00,CLR,,0.01,WeatherDisplay:10.37,2013-05-11 02:44:00,
2013-05-10 22:49:00,62.4,57.8,29.90,South,176,0.0,1.2,85,0.00,CLR,,0.01,WeatherDisplay:10.37,2013-05-11 02:49:00,
2013-05-10 22:54:00,62.7,57.5,29.90,South,176,0.0,1.2,83,0.00,CLR,,0.01,WeatherDisplay:10.37,2013-05-11 02:54:00,
2013-05-10 22:59:00,63.0,57.1,29.90,South,175,0.2,0.0,81,0.00,CLR,,0.01,WeatherDisplay:10.37,2013-05-11 02:59:00,
2013-05-10 23:04:00,63.3,56.7,29.90,SW,224,1.6,3.5,79,0.00,SCT,,0.01,WeatherDisplay:10.37,2013-05-11 03:04:00,
2013-05-10 23:09:00,63.7,57.1,29.90,SW,221,2.0,3.5,79,0.00,SCT,,0.01,WeatherDisplay:10.37,2013-05-11 03:09:00,
2013-05-10 23:14:00,63.9,56.5,29.90,SSW,205,0.3,2.3,77,0.00,SCT,,0.01,WeatherDisplay:10.37,2013-05-11 03:14:00,
2013-05-10 23:19:00,64.1,56.7,29.90,South,186,0.3,2.3,77,0.00,SCT,,0.01,WeatherDisplay:10.37,2013-05-11 03:19:00,
2013-05-10 23:24:00,64.3,56.9,29.90,WSW,244,0.5,1.2,77,0.00,SCT,,0.01,WeatherDisplay:10.37,2013-05-11 03:24:00,
2013-05-10 23:29:00,64.3,56.6,29.90,SSW,210,0.5,3.5,76,0.00,SCT,,0.01,WeatherDisplay:10.37,2013-05-11 03:29:00,
2013-05-10 23:34:00,64.3,56.6,29.90,SW,236,0.0,1.2,76,0.00,SCT,,0.01,WeatherDisplay:10.37,2013-05-11 03:34:00,
2013-05-10 23:39:00,64.4,56.7,29.90,SE,136,2.2,2.3,76,0.00,SCT,,0.01,WeatherDisplay:10.37,2013-05-11 03:39:00,
2013-05-10 23:44:00,64.6,56.9,29.90,WSW,246,0.1,0.0,76,0.00,SCT,,0.01,WeatherDisplay:10.37,2013-05-11 03:44:00,
2013-05-10 23:49:00,64.7,56.2,29.90,SW,232,0.4,3.5,74,0.00,SCT,,0.01,WeatherDisplay:10.37,2013-05-11 03:49:00,
2013-05-10 23:54:00,64.8,56.3,29.90,South,187,1.3,2.3,74,0.00,SCT,,0.01,WeatherDisplay:10.37,2013-05-11 03:54:00,
2013-05-10 23:59:00,64.8,55.9,29.90,SSW,210,1.2,3.5,73,0.00,SCT,,0.01,WeatherDisplay:10.37,2013-05-11 03:59:00,